createdAt,value
2017-12-14T09:05:14.166Z,1.40
2017-12-14T09:07:57.899Z,1.40
2017-12-14T09:10:27.004Z,1.40
2017-12-14T09:12:56.116Z,1.50
2017-12-14T09:15:25.420Z,1.50
2017-12-14T09:17:54.863Z,1.60
2017-12-14T09:20:24.084Z,1.60
2017-12-14T09:22:53.971Z,1.70
2017-12-14T09:25:23.097Z,1.60
2017-12-14T09:27:53.268Z,1.70
2017-12-14T09:30:25.381Z,1.80
2017-12-14T09:32:54.637Z,1.70
2017-12-14T09:35:23.862Z,1.80
2017-12-14T09:40:18.506Z,1.90
2017-12-14T09:42:50.839Z,2.10
2017-12-14T09:45:20.054Z,2.20
2017-12-14T09:47:49.106Z,2.30
2017-12-14T09:50:18.364Z,2.30
2017-12-14T09:52:48.575Z,2.30
2017-12-14T09:55:19.375Z,2.20
2017-12-14T09:57:48.875Z,2.10
2017-12-14T10:00:18.046Z,2.10
2017-12-14T10:02:48.044Z,2.10
2017-12-14T10:05:17.232Z,2.10
2017-12-14T10:07:47.623Z,2.20
2017-12-14T10:10:17.444Z,2.20
2017-12-14T10:12:47.095Z,2.20
2017-12-14T10:15:16.239Z,2.20
2017-12-14T10:17:45.486Z,2.20
2017-12-14T10:20:17.512Z,2.20
2017-12-14T10:22:46.796Z,2.20
2017-12-14T10:25:16.049Z,2.10
2017-12-14T10:27:45.220Z,2.10
2017-12-14T10:30:15.575Z,2.10
2017-12-14T10:32:51.395Z,2.10
2017-12-14T10:35:20.752Z,2.10
2017-12-14T10:37:50.668Z,2.10
2017-12-14T10:40:20.631Z,2.20
2017-12-14T10:42:50.395Z,2.10
2017-12-14T10:45:20.472Z,2.20
2017-12-14T10:47:49.732Z,2.20
2017-12-14T10:50:33.481Z,2.30
2017-12-14T10:53:03.016Z,2.20
2017-12-14T10:55:32.148Z,2.20
2017-12-14T10:58:02.164Z,2.20
2017-12-14T11:00:36.399Z,2.20
2017-12-14T11:03:09.375Z,2.20
2017-12-14T11:05:39.539Z,2.30
2017-12-14T11:08:08.979Z,2.20
2017-12-14T11:10:38.206Z,2.30
2017-12-14T11:13:10.782Z,2.30
2017-12-14T11:15:41.916Z,2.40
2017-12-14T11:18:15.940Z,2.50
2017-12-14T11:20:47.679Z,2.50
2017-12-14T11:23:17.252Z,2.50
2017-12-14T11:29:22.922Z,2.50
2017-12-14T11:31:52.218Z,2.50
2017-12-14T11:34:22.062Z,2.50
2017-12-14T11:36:52.081Z,2.50
2017-12-14T11:39:22.319Z,2.50
2017-12-14T11:41:51.844Z,2.50
2017-12-14T11:44:21.091Z,2.60
2017-12-14T11:46:50.570Z,2.80
2017-12-14T11:49:20.790Z,2.90
2017-12-14T11:51:49.929Z,2.90
2017-12-14T11:54:20.134Z,2.90
2017-12-14T11:56:54.550Z,2.90
2017-12-14T11:59:24.066Z,2.90
2017-12-14T12:01:53.383Z,2.90
2017-12-14T12:04:23.515Z,2.80
2017-12-14T12:06:53.414Z,2.80
2017-12-14T12:09:23.838Z,2.80
2017-12-14T12:11:58.388Z,2.80
2017-12-14T12:14:27.971Z,2.80
2017-12-14T12:16:59.629Z,2.80
2017-12-14T12:19:29.055Z,2.80
2017-12-14T12:22:02.654Z,2.70
2017-12-14T12:24:33.047Z,2.80
2017-12-14T12:27:03.208Z,2.70
2017-12-14T12:29:34.053Z,2.70
2017-12-14T12:32:03.405Z,2.70
2017-12-14T12:34:33.621Z,2.70
2017-12-14T12:37:03.750Z,2.70
2017-12-14T12:39:33.852Z,2.70
2017-12-14T12:42:03.984Z,2.60
2017-12-14T12:44:33.215Z,2.70
2017-12-14T12:47:04.765Z,2.70
2017-12-14T12:49:34.971Z,2.70
2017-12-14T12:52:04.377Z,2.60
2017-12-14T12:54:34.480Z,2.70
2017-12-14T12:57:03.888Z,2.70
2017-12-14T12:59:34.026Z,2.70
2017-12-14T13:02:03.810Z,2.60
2017-12-14T13:04:34.105Z,2.70
2017-12-14T13:07:03.981Z,2.70
2017-12-14T13:09:33.315Z,2.70
2017-12-14T13:12:02.623Z,2.70
2017-12-14T13:14:31.729Z,2.70
2017-12-14T13:17:00.975Z,2.70
2017-12-14T13:19:32.545Z,2.70
2017-12-14T13:22:01.799Z,2.60
2017-12-14T13:24:31.288Z,2.60
2017-12-14T13:27:00.381Z,2.60
2017-12-14T13:29:29.789Z,2.60
2017-12-14T13:32:00.567Z,2.70
2017-12-14T13:34:30.610Z,2.70
2017-12-14T13:37:01.355Z,2.70
2017-12-14T13:39:30.583Z,2.70
2017-12-14T13:42:00.429Z,2.70
2017-12-14T13:44:30.390Z,2.70
2017-12-14T13:46:59.524Z,2.70
2017-12-14T13:49:29.232Z,2.70
2017-12-14T13:51:59.112Z,2.80
2017-12-14T13:54:29.229Z,2.80
2017-12-14T13:56:59.070Z,2.70
2017-12-14T13:59:30.728Z,2.80
2017-12-14T14:02:24.051Z,2.70
2017-12-14T14:05:06.268Z,2.70
2017-12-14T14:07:44.956Z,2.70
2017-12-14T14:10:15.044Z,2.70
2017-12-14T14:12:45.023Z,2.60
2017-12-14T14:15:14.414Z,2.60
2017-12-14T14:17:46.005Z,2.60
2017-12-14T14:20:16.717Z,2.60
2017-12-14T14:22:46.692Z,2.60
2017-12-14T14:25:15.870Z,2.60
2017-12-14T14:27:45.945Z,2.60
2017-12-14T14:30:19.760Z,2.50
2017-12-14T14:32:49.298Z,2.50
2017-12-14T14:35:19.282Z,2.50
2017-12-14T14:37:50.197Z,2.50
2017-12-14T14:40:23.430Z,2.40
2017-12-14T14:42:57.114Z,2.50
2017-12-14T14:49:02.914Z,2.50
2017-12-14T14:51:32.047Z,2.50
2017-12-14T14:54:01.193Z,2.40
2017-12-14T14:56:31.044Z,2.40
2017-12-14T14:59:01.712Z,2.30
2017-12-14T15:01:30.952Z,2.20
2017-12-14T15:04:00.009Z,2.20
2017-12-14T15:06:29.177Z,2.20
2017-12-14T15:08:58.432Z,2.20
2017-12-14T15:11:27.550Z,2.20
2017-12-14T15:13:56.734Z,2.20
2017-12-14T15:16:25.844Z,2.20
2017-12-14T15:18:55.726Z,2.20
2017-12-14T15:21:25.717Z,2.20
2017-12-14T15:23:54.924Z,2.20
2017-12-14T15:26:28.832Z,2.20
2017-12-14T15:28:58.166Z,2.20
2017-12-14T15:31:28.261Z,2.20
2017-12-14T15:33:58.134Z,2.20
2017-12-14T15:36:27.382Z,2.10
2017-12-14T15:38:57.376Z,2.10
2017-12-14T15:41:26.756Z,2.10
2017-12-14T15:43:56.015Z,2.10
2017-12-14T15:46:31.812Z,2.10
2017-12-14T15:49:01.849Z,2.20
2017-12-14T15:51:33.912Z,2.20
2017-12-14T15:54:03.065Z,2.20
2017-12-14T15:56:32.385Z,2.20
2017-12-14T15:59:02.514Z,2.20
2017-12-14T16:01:31.924Z,2.30
2017-12-14T16:04:02.119Z,2.30
2017-12-14T16:06:32.090Z,2.30
2017-12-14T16:09:06.735Z,2.20
2017-12-14T16:14:13.726Z,2.10
2017-12-14T16:16:43.091Z,2.00
2017-12-14T16:19:12.129Z,2.10
2017-12-14T16:21:46.760Z,2.20
2017-12-14T16:24:16.957Z,2.10
2017-12-14T16:26:46.968Z,2.10
2017-12-14T16:29:16.999Z,2.10
2017-12-14T16:31:46.289Z,2.10
2017-12-14T16:34:16.005Z,2.30
2017-12-14T16:36:45.735Z,2.20
2017-12-14T16:39:15.608Z,2.10
2017-12-14T16:41:45.503Z,2.10
2017-12-14T16:44:14.887Z,2.10
2017-12-14T16:46:44.048Z,2.10
2017-12-14T16:49:13.227Z,2.10
2017-12-14T16:51:43.118Z,2.00
2017-12-14T16:54:12.553Z,2.00
2017-12-14T16:56:42.660Z,2.00
2017-12-14T16:59:12.823Z,2.00
2017-12-14T17:01:42.976Z,2.00
2017-12-14T17:04:12.068Z,2.00
2017-12-14T17:06:41.525Z,1.90
2017-12-14T17:09:11.058Z,1.90
2017-12-14T17:11:40.090Z,1.90
2017-12-14T17:14:10.594Z,1.90
2017-12-14T17:16:40.164Z,1.90
2017-12-14T17:19:10.428Z,1.90
2017-12-14T17:21:40.819Z,1.80
2017-12-14T17:24:11.168Z,1.80
2017-12-14T17:26:44.149Z,1.80
2017-12-14T17:29:13.299Z,1.80
2017-12-14T17:31:42.902Z,1.70
2017-12-14T17:34:18.566Z,1.70
2017-12-14T17:36:47.959Z,1.70
2017-12-14T17:39:23.011Z,1.70
2017-12-14T17:41:53.423Z,1.70
2017-12-14T17:44:22.848Z,1.70
2017-12-14T17:46:54.883Z,1.70
2017-12-14T17:49:25.232Z,1.70
2017-12-14T17:51:54.738Z,1.60
2017-12-14T17:54:23.928Z,1.60
2017-12-14T17:56:53.517Z,1.60
2017-12-14T17:59:23.402Z,1.70
2017-12-14T18:01:52.500Z,1.70
2017-12-14T18:04:21.704Z,1.70
2017-12-14T18:06:50.825Z,1.70
2017-12-14T18:09:20.705Z,1.70
2017-12-14T18:12:52.606Z,1.60
2017-12-14T18:15:22.221Z,1.60
2017-12-14T18:17:51.716Z,1.60
2017-12-14T18:20:20.972Z,1.50
2017-12-14T18:22:50.066Z,1.50
2017-12-14T18:25:19.212Z,1.60
2017-12-14T18:27:49.847Z,1.50
2017-12-14T18:30:19.254Z,1.50
2017-12-14T18:32:48.636Z,1.50
2017-12-14T18:35:18.808Z,1.50
2017-12-14T18:37:47.963Z,1.50
2017-12-14T18:40:17.772Z,1.50
2017-12-14T18:42:47.387Z,1.50
2017-12-14T18:45:16.887Z,1.50
2017-12-14T18:47:46.188Z,1.50
2017-12-14T18:50:15.459Z,1.50
2017-12-14T18:52:44.839Z,1.40
2017-12-14T18:55:14.179Z,1.40
2017-12-14T18:57:43.519Z,1.40
2017-12-14T19:00:12.907Z,1.40
2017-12-14T19:02:43.260Z,1.40
2017-12-14T19:05:17.809Z,1.40
2017-12-14T19:07:49.214Z,1.30
2017-12-14T19:10:23.425Z,1.40
2017-12-14T19:12:58.732Z,1.40
2017-12-14T19:15:30.311Z,1.40
2017-12-14T19:17:59.583Z,1.40
2017-12-14T19:20:29.870Z,1.40
2017-12-14T19:22:59.100Z,1.40
2017-12-14T19:25:29.215Z,1.30
2017-12-14T19:27:58.378Z,1.30
2017-12-14T19:30:27.585Z,1.30
2017-12-14T19:32:57.055Z,1.50
2017-12-14T19:35:26.324Z,1.50
2017-12-14T19:37:56.526Z,1.60
2017-12-14T19:40:26.868Z,1.50
2017-12-14T19:42:57.102Z,1.60
2017-12-14T19:45:27.104Z,1.60
2017-12-14T19:47:57.115Z,1.60
2017-12-14T19:50:26.340Z,1.50
2017-12-14T19:52:55.518Z,1.60
2017-12-14T19:55:25.850Z,1.60
2017-12-14T19:57:55.856Z,1.60
2017-12-14T20:00:25.968Z,1.60
2017-12-14T20:02:56.012Z,1.60
2017-12-14T20:05:25.154Z,1.60
2017-12-14T20:07:54.702Z,1.60
2017-12-14T20:10:24.003Z,1.70
2017-12-14T20:12:53.306Z,1.80
2017-12-14T20:15:22.495Z,1.70
2017-12-14T20:17:52.409Z,1.60
2017-12-14T20:20:23.076Z,1.60
2017-12-14T20:22:58.239Z,1.50
2017-12-14T20:25:27.591Z,1.50
2017-12-14T20:27:57.684Z,1.60
2017-12-14T20:30:26.883Z,1.50
2017-12-14T20:32:56.598Z,1.60
2017-12-14T20:35:25.776Z,1.60
2017-12-14T20:37:54.840Z,1.70
2017-12-14T20:40:24.088Z,1.70
2017-12-14T20:42:53.262Z,1.70
2017-12-14T20:45:23.451Z,1.80
2017-12-14T20:47:52.810Z,1.80
2017-12-14T20:50:22.736Z,1.80
2017-12-14T20:52:55.047Z,1.70
2017-12-14T20:55:25.450Z,1.70
2017-12-14T20:57:55.152Z,1.60
2017-12-14T21:00:24.291Z,1.70
2017-12-14T21:02:53.380Z,1.80
2017-12-14T21:05:22.486Z,1.80
2017-12-14T21:07:51.589Z,1.80
2017-12-14T21:10:22.393Z,1.70
2017-12-14T21:12:51.507Z,1.70
2017-12-14T21:15:20.614Z,1.70
2017-12-14T21:17:49.726Z,1.70
2017-12-14T21:20:18.948Z,1.70
2017-12-14T21:22:49.283Z,1.80
2017-12-14T21:25:19.277Z,1.80
2017-12-14T21:27:49.189Z,1.80
2017-12-14T21:30:19.662Z,1.90
2017-12-14T21:32:48.920Z,1.80
2017-12-14T21:35:20.913Z,1.90
2017-12-14T21:37:50.717Z,1.90
2017-12-14T21:40:20.601Z,1.90
2017-12-14T21:42:49.725Z,1.90
2017-12-14T22:29:01.075Z,2.10
2017-12-14T22:31:31.327Z,2.00
2017-12-14T22:34:00.378Z,2.00
2017-12-14T22:36:29.433Z,1.90
2017-12-14T22:38:58.693Z,1.80
2017-12-14T22:41:28.723Z,1.70
2017-12-14T22:43:59.279Z,1.70
2017-12-14T22:46:29.352Z,1.70
2017-12-14T22:48:59.214Z,1.70
2017-12-14T22:51:28.236Z,1.60
2017-12-14T22:53:57.315Z,1.70
2017-12-14T22:56:26.344Z,1.80
2017-12-14T22:58:56.105Z,1.80
2017-12-14T23:01:25.229Z,1.70
2017-12-14T23:03:54.184Z,1.80
2017-12-14T23:06:23.161Z,1.80
2017-12-14T23:08:52.312Z,1.70
2017-12-14T23:11:21.376Z,1.70
2017-12-14T23:13:50.468Z,1.70
2017-12-14T23:16:19.541Z,1.60
2017-12-14T23:18:48.773Z,1.60
2017-12-14T23:21:18.143Z,1.60
2017-12-14T23:23:48.062Z,1.60
2017-12-14T23:26:19.169Z,1.60
2017-12-14T23:28:48.221Z,1.60
2017-12-14T23:31:18.081Z,1.60
2017-12-14T23:33:47.086Z,1.60
2017-12-14T23:36:19.891Z,1.50
2017-12-14T23:38:49.212Z,1.50
2017-12-14T23:41:18.355Z,1.60
2017-12-14T23:43:48.162Z,1.60
2017-12-14T23:46:18.002Z,1.60
2017-12-14T23:48:47.214Z,1.50
2017-12-14T23:51:16.800Z,1.60
2017-12-14T23:53:45.813Z,1.60
2017-12-14T23:56:14.832Z,1.60
